Terminal Aerodrome Forecast
Issued by NWS Wakefield, VA

Home | Current Version | Previous Version | Text Only | Print | Product List | Glossary On
Versions: 1 2 3 4 5 6 7 8 9 10 11 12 13 14 15 16
556
FTUS41 KAKQ 260531
TAFORF
TAF
KORF 260531Z 2606/2706 21007KT P6SM BKN250
     FM261600 15007KT P6SM BKN060
     FM261900 14008KT P6SM SCT050
     FM262100 14010KT P6SM BKN100
     FM262200 16010KT P6SM SCT150=

USA.gov is the U.S. government's official web portal to all federal, state and local government web resources and services.